Time;durP1;ratioP1;P1;durP2;ratioP2;P2;SDS_P1;SDS_P2;PMS_P1;PMS_P2;Temp;Humidity;BMP_temperature;BMP_pressure;BME280_temperature;BME280_humidity;BME280_pressure;Samples;Min_cycle;Max_cycle;Signal;HPM_P1;HPM_P2
2021/01/01 00:00:12;;;;;;;10.20;8.63;;;3.10;82.90;;;;;;5136831;27;20545;-85
2021/01/01 00:02:40;;;;;;;9.50;8.30;;;3.10;82.50;;;;;;5162051;27;20463;-85
2021/01/01 00:05:08;;;;;;;9.40;8.50;;;3.00;82.80;;;;;;5156671;27;20453;-89
2021/01/01 00:07:36;;;;;;;10.03;9.03;;;3.00;82.90;;;;;;5157916;27;20444;-83
2021/01/01 00:10:05;;;;;;;9.77;8.77;;;3.00;83.10;;;;;;5159045;27;20471;-85
2021/01/01 00:12:39;;;;;;;10.77;8.60;;;3.00;83.40;;;;;;5142364;27;20445;-82
2021/01/01 00:15:08;;;;;;;8.80;7.97;;;3.10;83.10;;;;;;5148601;27;20469;-84
2021/01/01 00:17:35;;;;;;;10.00;8.90;;;3.10;83.20;;;;;;5146624;27;20456;-83
2021/01/01 00:20:02;;;;;;;9.90;8.90;;;3.10;82.30;;;;;;5150036;27;20477;-85
2021/01/01 00:22:30;;;;;;;9.60;8.33;;;3.10;82.50;;;;;;5144292;27;20429;-84
2021/01/01 00:24:57;;;;;;;7.87;7.07;;;3.20;82.50;;;;;;5132294;27;20486;-84
2021/01/01 00:27:36;;;;;;;8.90;8.00;;;3.20;82.10;;;;;;5152452;27;20441;-82
2021/01/01 00:30:05;;;;;;;7.87;6.93;;;3.30;81.80;;;;;;5152625;27;20456;-84
2021/01/01 00:32:32;;;;;;;10.23;8.83;;;3.30;81.60;;;;;;5145366;27;20533;-84
2021/01/01 00:35:01;;;;;;;9.20;8.30;;;3.30;81.60;;;;;;5139247;27;20477;-87
2021/01/01 00:37:28;;;;;;;9.90;8.53;;;3.30;81.20;;;;;;5134670;28;20457;-84
2021/01/01 00:39:55;;;;;;;10.53;9.30;;;3.30;81.50;;;;;;5147844;27;20455;-85
2021/01/01 00:42:22;;;;;;;9.87;8.80;;;3.30;81.30;;;;;;5156985;27;20524;-82
2021/01/01 00:44:50;;;;;;;8.77;7.87;;;3.40;81.80;;;;;;5157965;27;20464;-87
2021/01/01 00:47:17;;;;;;;9.33;8.03;;;3.30;81.20;;;;;;5155584;27;20453;-84
2021/01/01 00:49:44;;;;;;;10.20;8.03;;;3.30;81.40;;;;;;5147229;27;20512;-84
2021/01/01 00:52:10;;;;;;;8.67;7.87;;;3.20;81.20;;;;;;5160473;27;20454;-84
2021/01/01 00:54:37;;;;;;;9.40;8.37;;;3.10;81.30;;;;;;5163603;27;20468;-86
2021/01/01 00:57:04;;;;;;;10.10;8.60;;;3.10;82.00;;;;;;5154934;27;20465;-85
2021/01/01 00:59:31;;;;;;;9.40;8.40;;;3.00;82.20;;;;;;5157344;27;20523;-86
2021/01/01 01:01:58;;;;;;;10.03;9.00;;;2.90;82.90;;;;;;5161921;27;20452;-82
2021/01/01 01:04:27;;;;;;;12.10;9.23;;;2.80;84.10;;;;;;5184747;27;20424;-83
2021/01/01 01:06:54;;;;;;;10.80;9.33;;;2.80;84.60;;;;;;5163925;27;20459;-83
2021/01/01 01:09:21;;;;;;;10.10;8.60;;;2.90;84.80;;;;;;5152377;27;20440;-83
2021/01/01 01:11:48;;;;;;;10.60;9.10;;;3.00;84.00;;;;;;5151194;27;20452;-86
2021/01/01 01:14:14;;;;;;;10.63;9.17;;;3.00;84.20;;;;;;5152096;27;20464;-82
2021/01/01 01:16:42;;;;;;;11.17;9.27;;;3.10;83.50;;;;;;5150071;27;20452;-85
2021/01/01 01:19:11;;;;;;;11.43;9.90;;;3.10;83.00;;;;;;5151676;27;20460;-83
2021/01/01 01:21:37;;;;;;;10.53;9.47;;;3.10;82.70;;;;;;5161580;27;20452;-84
2021/01/01 01:24:05;;;;;;;13.90;9.03;;;3.10;82.90;;;;;;5154566;27;20453;-85
2021/01/01 01:26:31;;;;;;;12.17;9.40;;;3.00;82.50;;;;;;5153655;27;20459;-83
2021/01/01 01:28:59;;;;;;;10.20;9.27;;;3.00;83.00;;;;;;5148450;27;20531;-86
2021/01/01 01:31:26;;;;;;;9.67;8.67;;;3.00;82.90;;;;;;5153719;27;20449;-84
2021/01/01 01:33:53;;;;;;;10.60;9.50;;;3.10;82.50;;;;;;5147916;27;20473;-86
2021/01/01 01:36:21;;;;;;;10.03;8.93;;;3.10;82.40;;;;;;5150703;27;20444;-85
2021/01/01 01:38:51;;;;;;;11.10;9.50;;;3.00;82.50;;;;;;5155208;27;20823;-84
2021/01/01 01:41:19;;;;;;;10.33;8.90;;;3.10;82.40;;;;;;5154116;27;20459;-88
2021/01/01 01:43:46;;;;;;;9.97;8.97;;;3.00;82.50;;;;;;5154023;27;20452;-84
2021/01/01 01:46:14;;;;;;;9.80;8.80;;;3.10;82.60;;;;;;5157281;27;20456;-88
2021/01/01 01:48:45;;;;;;;11.43;9.20;;;3.20;82.10;;;;;;5156279;27;20942;-84
2021/01/01 01:51:14;;;;;;;10.70;8.73;;;3.30;82.00;;;;;;5146052;27;21205;-83
2021/01/01 01:53:45;;;;;;;10.90;9.20;;;3.30;81.70;;;;;;5144361;27;20530;-85
2021/01/01 01:56:12;;;;;;;10.17;9.00;;;3.30;81.60;;;;;;5144257;27;20457;-85
2021/01/01 01:58:41;;;;;;;10.37;9.20;;;3.30;81.40;;;;;;5144700;27;20814;-87
2021/01/01 02:01:11;;;;;;;9.90;8.10;;;3.40;81.10;;;;;;5157791;27;20437;-90
2021/01/01 02:03:38;;;;;;;9.60;8.60;;;3.40;80.50;;;;;;5154507;27;20445;-82
2021/01/01 02:06:06;;;;;;;8.83;7.77;;;3.40;80.60;;;;;;5155239;27;20456;-85
2021/01/01 02:08:35;;;;;;;9.50;8.50;;;3.30;80.40;;;;;;5135783;27;20906;-83
2021/01/01 02:11:04;;;;;;;7.80;7.00;;;3.30;80.40;;;;;;5134217;27;20450;-84
2021/01/01 02:13:32;;;;;;;9.47;8.00;;;3.40;80.60;;;;;;5150521;27;20603;-82
2021/01/01 02:15:59;;;;;;;8.80;7.90;;;3.30;80.10;;;;;;5150778;27;20803;-83
2021/01/01 02:18:39;;;;;;;8.70;7.80;;;3.30;80.10;;;;;;5160112;27;20433;-84
2021/01/01 02:21:07;;;;;;;9.17;7.53;;;3.30;80.20;;;;;;5164123;27;20456;-86
2021/01/01 02:23:35;;;;;;;8.23;7.37;;;3.30;80.10;;;;;;5152407;27;20451;-85
2021/01/01 02:26:03;;;;;;;13.40;8.17;;;3.20;80.00;;;;;;5151844;27;20464;-84
2021/01/01 02:28:29;;;;;;;8.80;7.90;;;3.30;80.00;;;;;;5133972;27;20569;-84
2021/01/01 02:30:57;;;;;;;9.47;8.30;;;3.20;79.90;;;;;;5156722;27;20445;-83
2021/01/01 02:33:24;;;;;;;8.80;7.87;;;3.20;79.90;;;;;;5132055;27;20502;-83
2021/01/01 02:35:52;;;;;;;10.43;8.43;;;3.20;80.00;;;;;;5145396;27;20452;-84
2021/01/01 02:38:21;;;;;;;10.20;9.20;;;3.20;80.10;;;;;;5128668;27;20442;-83
2021/01/01 02:40:48;;;;;;;10.00;8.50;;;3.00;80.00;;;;;;5147270;27;20462;-84
2021/01/01 02:43:18;;;;;;;10.27;9.10;;;2.90;80.50;;;;;;5153490;27;20459;-84
2021/01/01 02:45:45;;;;;;;11.20;8.80;;;2.80;80.80;;;;;;5153543;27;20798;-82
2021/01/01 02:48:21;;;;;;;10.10;9.00;;;2.90;81.60;;;;;;5151083;27;20438;-82
2021/01/01 02:50:48;;;;;;;10.03;9.03;;;2.90;81.30;;;;;;5147428;27;20456;-85
2021/01/01 02:53:15;;;;;;;11.20;9.13;;;2.90;81.30;;;;;;5134702;27;20580;-84
2021/01/01 02:55:42;;;;;;;10.83;8.87;;;3.00;81.10;;;;;;5152478;27;20474;-84
2021/01/01 02:58:10;;;;;;;9.17;7.70;;;3.00;80.70;;;;;;5147377;27;20456;-82
2021/01/01 03:00:39;;;;;;;10.90;8.70;;;2.90;80.40;;;;;;5154008;27;20519;-83
2021/01/01 03:03:06;;;;;;;9.77;8.43;;;2.90;80.70;;;;;;5149849;27;20481;-84
2021/01/01 03:05:34;;;;;;;9.43;8.43;;;2.90;80.20;;;;;;5138568;27;20465;-83
2021/01/01 03:08:04;;;;;;;10.33;8.37;;;2.90;79.90;;;;;;5147272;27;20476;-86
2021/01/01 03:10:32;;;;;;;10.17;8.97;;;2.90;79.90;;;;;;5145580;27;20449;-85
2021/01/01 03:12:59;;;;;;;9.00;7.87;;;3.00;80.40;;;;;;5144590;27;20458;-83
2021/01/01 03:15:29;;;;;;;9.10;8.20;;;3.00;80.00;;;;;;5149031;27;20469;-90
2021/01/01 03:17:55;;;;;;;9.43;8.43;;;2.90;79.80;;;;;;5156827;27;20491;-89
2021/01/01 03:20:22;;;;;;;9.27;8.27;;;2.90;80.00;;;;;;5161916;27;20444;-86
2021/01/01 03:22:49;;;;;;;10.93;8.30;;;3.00;79.80;;;;;;5155907;27;20453;-88
2021/01/01 03:25:15;;;;;;;10.20;8.93;;;2.90;79.90;;;;;;5156880;27;20486;-83
2021/01/01 03:27:42;;;;;;;9.60;8.03;;;2.90;80.20;;;;;;5152488;27;20464;-84
2021/01/01 03:30:11;;;;;;;10.67;9.57;;;2.80;79.90;;;;;;5154029;27;20442;-82
2021/01/01 03:32:39;;;;;;;9.80;8.80;;;2.70;79.80;;;;;;5147797;27;20448;-82
2021/01/01 03:35:07;;;;;;;10.60;9.60;;;2.60;80.30;;;;;;5147680;27;20475;-82
2021/01/01 03:37:34;;;;;;;11.37;9.30;;;2.60;80.20;;;;;;5145866;27;20485;-83
2021/01/01 03:40:03;;;;;;;13.27;10.83;;;2.60;80.40;;;;;;5149561;27;20449;-86
2021/01/01 03:42:30;;;;;;;10.70;9.60;;;2.60;80.30;;;;;;5160723;27;20515;-83
2021/01/01 03:44:57;;;;;;;13.47;10.20;;;2.60;80.30;;;;;;5153701;27;20475;-84
2021/01/01 03:47:23;;;;;;;12.00;10.57;;;2.60;81.00;;;;;;5151622;27;20456;-85
2021/01/01 03:49:51;;;;;;;12.10;10.57;;;2.60;80.20;;;;;;5152948;27;20536;-89
2021/01/01 03:52:20;;;;;;;12.97;10.23;;;2.60;80.50;;;;;;5155829;27;20542;-90
2021/01/01 03:54:46;;;;;;;12.30;9.90;;;2.60;80.30;;;;;;5154226;27;20489;-85
2021/01/01 03:57:13;;;;;;;13.13;9.90;;;2.70;80.10;;;;;;5139916;27;20456;-87
2021/01/01 03:59:41;;;;;;;11.30;9.80;;;2.60;80.00;;;;;;5154781;27;20556;-83
2021/01/01 04:02:08;;;;;;;12.03;10.20;;;2.70;80.10;;;;;;5157776;27;20454;-84
2021/01/01 04:04:35;;;;;;;11.73;10.20;;;2.70;79.90;;;;;;5152044;27;20479;-83
2021/01/01 04:07:02;;;;;;;12.87;9.63;;;2.80;80.10;;;;;;5139564;27;20468;-84
2021/01/01 04:09:29;;;;;;;12.17;10.27;;;2.80;80.00;;;;;;5133863;27;20531;-84
2021/01/01 04:11:57;;;;;;;11.83;10.37;;;2.80;80.00;;;;;;5157558;27;20465;-82
2021/01/01 04:14:23;;;;;;;13.10;10.90;;;2.80;79.90;;;;;;5161831;27;20467;-81
2021/01/01 04:16:50;;;;;;;13.70;10.50;;;2.80;79.70;;;;;;5138958;27;20449;-89
2021/01/01 04:19:17;;;;;;;10.70;9.47;;;2.80;80.20;;;;;;5168379;27;20480;-88
2021/01/01 04:21:47;;;;;;;10.67;9.57;;;2.80;79.70;;;;;;5135380;28;20466;-86
2021/01/01 04:24:22;;;;;;;12.53;10.53;;;2.90;79.80;;;;;;5137438;27;20446;-88
2021/01/01 04:26:50;;;;;;;13.50;10.07;;;2.80;79.80;;;;;;5153204;27;20480;-87
2021/01/01 04:29:17;;;;;;;13.20;10.70;;;2.80;80.00;;;;;;5153930;27;20447;-89
2021/01/01 04:31:44;;;;;;;11.20;9.80;;;2.80;80.20;;;;;;5134642;28;20453;-87
2021/01/01 04:34:11;;;;;;;12.00;10.70;;;2.90;80.60;;;;;;5152184;27;20547;-87
2021/01/01 04:36:39;;;;;;;13.63;10.70;;;2.70;80.60;;;;;;5151457;27;20448;-86
2021/01/01 04:39:10;;;;;;;12.90;10.27;;;2.70;80.70;;;;;;5132597;28;20495;-87
2021/01/01 04:41:41;;;;;;;12.27;10.67;;;2.70;81.10;;;;;;5149987;27;20441;-86
2021/01/01 04:44:08;;;;;;;13.80;10.63;;;2.60;81.80;;;;;;5142835;28;20445;-88
2021/01/01 04:46:38;;;;;;;16.27;11.80;;;2.60;82.20;;;;;;5147230;27;20449;-87
2021/01/01 04:49:05;;;;;;;14.03;10.53;;;2.80;82.80;;;;;;5154825;27;20449;-88
2021/01/01 04:51:32;;;;;;;12.40;10.30;;;2.70;82.10;;;;;;5150601;28;20460;-88
2021/01/01 04:54:01;;;;;;;12.93;11.07;;;2.70;82.50;;;;;;5137840;28;20514;-88
2021/01/01 04:56:27;;;;;;;13.13;11.70;;;2.70;82.60;;;;;;5149765;27;20469;-87
2021/01/01 04:58:57;;;;;;;11.33;10.10;;;2.60;82.40;;;;;;5146621;28;20445;-86
2021/01/01 05:01:25;;;;;;;13.40;10.10;;;2.60;82.50;;;;;;5126148;28;20454;-86
2021/01/01 05:03:52;;;;;;;13.63;10.20;;;2.60;83.30;;;;;;5142775;27;20544;-87
2021/01/01 05:06:31;;;;;;;12.20;10.23;;;2.60;83.20;;;;;;5129598;28;20569;-88
2021/01/01 05:09:05;;;;;;;14.20;10.53;;;2.60;83.00;;;;;;5153798;27;20472;-87
2021/01/01 05:11:58;;;;;;;14.03;11.23;;;2.60;82.80;;;;;;5151790;27;20467;-89
2021/01/01 05:14:29;;;;;;;14.70;10.73;;;2.70;82.50;;;;;;5154803;27;20468;-87
2021/01/01 05:16:56;;;;;;;14.03;11.33;;;2.60;82.50;;;;;;5151113;27;20452;-86
2021/01/01 05:19:43;;;;;;;10.77;9.50;;;2.60;82.50;;;;;;5150999;27;20438;-86
2021/01/01 05:22:13;;;;;;;12.57;10.67;;;2.60;82.70;;;;;;5139315;27;20987;-87
2021/01/01 05:24:42;;;;;;;13.03;10.80;;;2.60;82.70;;;;;;5139356;27;20862;-87
2021/01/01 05:27:15;;;;;;;11.20;10.10;;;2.50;82.80;;;;;;5142096;27;20475;-86
2021/01/01 05:29:57;;;;;;;12.63;10.20;;;2.50;83.30;;;;;;5150146;27;20433;-88
2021/01/01 05:32:25;;;;;;;13.10;10.43;;;2.50;83.20;;;;;;5136890;27;20458;-86
2021/01/01 05:34:53;;;;;;;14.80;11.60;;;2.50;84.40;;;;;;5140197;27;20473;-86
2021/01/01 05:37:44;;;;;;;13.30;11.50;;;2.40;84.60;;;;;;5140917;27;20452;-86
2021/01/01 05:40:13;;;;;;;12.07;10.03;;;2.40;84.80;;;;;;5153371;27;20456;-86
2021/01/01 05:42:41;;;;;;;13.03;10.50;;;2.40;85.80;;;;;;5133549;27;20532;-86
2021/01/01 05:45:17;;;;;;;14.10;11.53;;;2.40;86.40;;;;;;5134939;27;20492;-88
2021/01/01 05:48:05;;;;;;;12.70;10.40;;;2.30;87.10;;;;;;5161341;27;20432;-87
2021/01/01 05:50:34;;;;;;;14.67;11.27;;;2.30;87.40;;;;;;5149935;27;20486;-85
2021/01/01 05:53:15;;;;;;;14.00;11.20;;;2.30;87.50;;;;;;5145006;27;20451;-88
2021/01/01 05:55:44;;;;;;;13.33;10.70;;;2.40;88.40;;;;;;5156057;27;20652;-87
2021/01/01 05:58:24;;;;;;;14.57;11.80;;;2.40;88.40;;;;;;5148665;27;20486;-89
2021/01/01 06:00:54;;;;;;;16.73;12.30;;;2.30;88.90;;;;;;5153199;27;20456;-86
2021/01/01 06:03:24;;;;;;;14.47;11.10;;;2.30;88.90;;;;;;5147427;27;20777;-85
2021/01/01 06:05:55;;;;;;;15.43;12.10;;;2.30;88.90;;;;;;5144791;27;20529;-85
2021/01/01 06:08:25;;;;;;;16.27;12.10;;;2.30;89.10;;;;;;5126531;27;20604;-90
2021/01/01 06:10:53;;;;;;;13.97;11.90;;;2.30;89.80;;;;;;5148082;27;20447;-89
2021/01/01 06:13:27;;;;;;;14.27;11.33;;;2.20;89.60;;;;;;5153714;27;20504;-85
2021/01/01 06:16:00;;;;;;;13.17;11.80;;;2.20;90.10;;;;;;5135359;27;20468;-87
2021/01/01 06:18:31;;;;;;;17.73;12.80;;;2.20;90.20;;;;;;5128274;27;20902;-88
2021/01/01 06:21:06;;;;;;;16.30;11.90;;;2.20;90.00;;;;;;5151448;27;20448;-87
2021/01/01 06:23:36;;;;;;;15.10;12.83;;;2.20;90.40;;;;;;5141616;27;20457;-86
2021/01/01 06:26:04;;;;;;;17.43;12.90;;;2.20;90.50;;;;;;5138407;27;20465;-86
2021/01/01 06:28:36;;;;;;;16.57;12.90;;;2.20;90.30;;;;;;5138876;27;20866;-87
2021/01/01 06:31:06;;;;;;;14.20;12.23;;;2.20;90.30;;;;;;5152336;27;20447;-86
2021/01/01 06:33:34;;;;;;;16.77;13.13;;;2.20;90.50;;;;;;5154944;27;20441;-90
2021/01/01 06:36:01;;;;;;;15.90;12.60;;;2.20;90.30;;;;;;5127545;27;20491;-87
2021/01/01 06:38:38;;;;;;;18.10;14.00;;;2.20;90.10;;;;;;5141528;27;20461;-87
2021/01/01 06:41:14;;;;;;;17.57;13.30;;;2.20;90.60;;;;;;5119349;27;20571;-86
2021/01/01 06:43:56;;;;;;;17.80;13.37;;;2.20;90.60;;;;;;5133032;27;20460;-87
2021/01/01 06:46:41;;;;;;;17.57;13.33;;;2.30;90.20;;;;;;5116274;27;20456;-87
2021/01/01 06:49:29;;;;;;;17.10;13.80;;;2.20;90.20;;;;;;5139166;27;20457;-86
2021/01/01 06:52:15;;;;;;;18.63;13.57;;;2.20;90.20;;;;;;5124698;27;20520;-87
2021/01/01 06:54:59;;;;;;;16.90;13.10;;;2.30;90.20;;;;;;5157026;27;20482;-87
2021/01/01 06:57:28;;;;;;;18.37;13.73;;;2.30;90.00;;;;;;5138698;27;20464;-85
2021/01/01 07:00:02;;;;;;;20.00;14.30;;;2.30;90.30;;;;;;5164655;27;20440;-85
2021/01/01 07:02:38;;;;;;;16.30;13.37;;;2.30;90.00;;;;;;5154548;27;20464;-88
2021/01/01 07:05:06;;;;;;;18.57;13.70;;;2.30;90.20;;;;;;5139315;27;20451;-86
2021/01/01 07:07:51;;;;;;;18.10;14.23;;;2.20;90.40;;;;;;5140104;27;20460;-87
2021/01/01 07:10:36;;;;;;;18.10;13.30;;;2.10;90.10;;;;;;5131043;27;20456;-86
2021/01/01 07:13:16;;;;;;;17.17;13.17;;;2.00;90.40;;;;;;5141344;27;20459;-86
2021/01/01 07:15:42;;;;;;;16.83;13.70;;;2.00;91.00;;;;;;5127005;27;20460;-88
2021/01/01 07:18:19;;;;;;;15.83;12.70;;;1.90;91.30;;;;;;5162620;27;20577;-87
2021/01/01 07:20:45;;;;;;;19.10;14.33;;;1.90;91.30;;;;;;5139080;27;20440;-86
2021/01/01 07:23:13;;;;;;;21.90;15.50;;;1.90;92.00;;;;;;5136630;27;20483;-86
2021/01/01 07:25:41;;;;;;;21.03;15.10;;;1.90;92.20;;;;;;5122487;27;20469;-86
2021/01/01 07:28:11;;;;;;;16.80;13.60;;;1.90;92.70;;;;;;5143876;27;20466;-88
2021/01/01 07:30:40;;;;;;;22.07;15.43;;;2.00;93.30;;;;;;5143519;27;20460;-86
2021/01/01 07:33:07;;;;;;;18.33;14.30;;;2.00;92.20;;;;;;5123079;27;20452;-87
2021/01/01 07:35:35;;;;;;;20.23;15.10;;;2.00;93.70;;;;;;5118885;27;21015;-87
2021/01/01 07:38:04;;;;;;;20.10;15.07;;;2.10;92.80;;;;;;5116059;27;20812;-87
2021/01/01 07:40:31;;;;;;;17.00;14.60;;;2.20;92.00;;;;;;5119859;27;20450;-87
2021/01/01 07:43:00;;;;;;;19.90;15.00;;;2.10;91.90;;;;;;5135765;27;20456;-88
2021/01/01 07:45:27;;;;;;;18.37;14.43;;;2.20;91.90;;;;;;5155735;27;20445;-89
2021/01/01 07:47:55;;;;;;;19.90;15.20;;;2.20;92.00;;;;;;5136295;27;20511;-88
2021/01/01 07:50:21;;;;;;;21.83;16.03;;;2.30;91.50;;;;;;5152959;27;20472;-87
2021/01/01 07:53:03;;;;;;;20.50;15.10;;;2.40;91.10;;;;;;5134437;27;20456;-87
2021/01/01 07:55:34;;;;;;;20.77;15.40;;;2.50;90.70;;;;;;5134832;27;20504;-87
2021/01/01 07:58:04;;;;;;;23.30;16.40;;;2.50;90.40;;;;;;5115015;27;20474;-87
2021/01/01 08:00:33;;;;;;;21.10;16.53;;;2.50;90.10;;;;;;5121057;27;20576;-87
2021/01/01 08:03:05;;;;;;;18.30;15.47;;;2.60;90.20;;;;;;5129914;27;20761;-88
2021/01/01 08:05:33;;;;;;;19.73;15.37;;;2.60;89.90;;;;;;5135114;27;20449;-88
2021/01/01 08:08:13;;;;;;;17.43;14.30;;;2.60;89.50;;;;;;5140911;27;20444;-87
2021/01/01 08:10:40;;;;;;;20.57;14.80;;;2.60;89.90;;;;;;5146835;27;20452;-88
2021/01/01 08:13:20;;;;;;;20.53;15.47;;;2.70;89.60;;;;;;5147416;27;20477;-88
2021/01/01 08:15:51;;;;;;;21.30;16.63;;;2.70;89.40;;;;;;5135968;27;20502;-87
2021/01/01 08:18:23;;;;;;;21.70;15.40;;;2.70;89.50;;;;;;5135478;27;20456;-88
2021/01/01 08:20:57;;;;;;;26.93;16.20;;;2.80;89.30;;;;;;5133646;27;20540;-87
2021/01/01 08:23:27;;;;;;;18.90;15.47;;;2.80;88.30;;;;;;5118288;27;20449;-89
2021/01/01 08:25:54;;;;;;;22.13;15.80;;;2.80;87.70;;;;;;5144058;27;20462;-88
2021/01/01 08:28:24;;;;;;;18.17;15.10;;;2.90;88.40;;;;;;5148431;27;20429;-89
2021/01/01 08:30:59;;;;;;;17.73;14.20;;;2.90;87.80;;;;;;5151423;27;20517;-89
2021/01/01 08:33:30;;;;;;;19.57;15.70;;;2.90;87.80;;;;;;5156473;27;20488;-87
2021/01/01 08:36:00;;;;;;;22.43;16.37;;;2.90;87.20;;;;;;5125792;27;21030;-87
2021/01/01 08:38:31;;;;;;;19.40;14.20;;;2.90;87.80;;;;;;5127808;27;20455;-88
2021/01/01 08:41:02;;;;;;;19.00;15.07;;;2.90;88.70;;;;;;5143106;27;21267;-87
2021/01/01 08:43:38;;;;;;;25.10;16.67;;;3.10;88.60;;;;;;5146745;27;20460;-87
2021/01/01 08:46:26;;;;;;;20.90;15.93;;;3.10;88.30;;;;;;5144835;28;20456;-87
2021/01/01 08:48:59;;;;;;;19.10;14.63;;;3.10;87.50;;;;;;5143681;28;20460;-88
2021/01/01 08:51:36;;;;;;;21.30;15.97;;;3.20;86.60;;;;;;5142588;27;20991;-87
2021/01/01 08:54:22;;;;;;;19.90;15.90;;;3.10;86.30;;;;;;5146804;27;20531;-88
2021/01/01 08:56:57;;;;;;;19.23;15.00;;;3.10;86.50;;;;;;5144137;27;20452;-86
2021/01/01 08:59:26;;;;;;;22.50;16.40;;;3.20;86.80;;;;;;5130025;28;20458;-87
2021/01/01 09:02:03;;;;;;;22.57;16.40;;;3.20;85.70;;;;;;5139643;27;20456;-87
2021/01/01 09:04:31;;;;;;;24.20;17.63;;;3.20;85.70;;;;;;5141622;27;20453;-87
2021/01/01 09:07:00;;;;;;;22.33;17.63;;;3.30;85.30;;;;;;5141721;27;20479;-87
2021/01/01 09:09:44;;;;;;;22.13;16.73;;;3.30;86.80;;;;;;5152955;27;20457;-87
2021/01/01 09:12:36;;;;;;;20.27;15.27;;;3.30;85.80;;;;;;5157850;27;20545;-87
2021/01/01 09:15:27;;;;;;;23.60;17.07;;;3.40;84.70;;;;;;5123275;27;20506;-86
2021/01/01 09:18:14;;;;;;;21.23;16.90;;;3.40;83.90;;;;;;5119841;27;20478;-88
2021/01/01 09:20:51;;;;;;;19.37;15.33;;;3.40;83.90;;;;;;5141185;27;20469;-88
2021/01/01 09:23:18;;;;;;;23.87;16.40;;;3.50;83.20;;;;;;5139928;27;20468;-88
2021/01/01 09:25:53;;;;;;;20.83;17.10;;;3.40;83.80;;;;;;5127731;27;20468;-87
2021/01/01 09:28:20;;;;;;;21.83;16.67;;;3.50;84.40;;;;;;5145071;27;20498;-87
2021/01/01 09:30:50;;;;;;;21.00;16.90;;;3.70;86.30;;;;;;5134765;27;20438;-88
2021/01/01 09:33:22;;;;;;;18.80;15.63;;;3.90;84.90;;;;;;5125926;27;20502;-87
2021/01/01 09:35:51;;;;;;;20.60;15.27;;;3.90;82.80;;;;;;5145781;27;20473;-85
2021/01/01 09:38:18;;;;;;;19.57;15.43;;;3.90;82.40;;;;;;5143234;27;20457;-86
2021/01/01 09:40:48;;;;;;;21.57;16.03;;;3.90;81.00;;;;;;5136734;27;20509;-87
2021/01/01 09:43:15;;;;;;;21.43;15.93;;;4.00;81.30;;;;;;5142418;27;20453;-87
2021/01/01 09:45:45;;;;;;;19.77;15.20;;;4.10;80.60;;;;;;5140265;27;20454;-87
2021/01/01 09:51:41;;;;;;;20.67;16.00;;;4.10;80.10;;;;;;5099526;28;20442;-88
2021/01/01 09:54:17;;;;;;;20.23;15.73;;;4.20;80.00;;;;;;5142065;27;21085;-87
2021/01/01 10:03:15;;;;;;;20.67;16.20;;;4.20;79.40;;;;;;5160202;27;20487;-88
2021/01/01 10:05:55;;;;;;;22.40;16.90;;;4.30;79.20;;;;;;5159807;27;21169;-87
2021/01/01 10:14:35;;;;;;;18.17;14.73;;;4.40;79.10;;;;;;5124626;27;21112;-88
2021/01/01 10:17:02;;;;;;;20.80;16.37;;;4.50;78.70;;;;;;5139983;27;20993;-87
2021/01/01 10:22:17;;;;;;;20.97;16.37;;;4.50;78.30;;;;;;5156076;27;20580;-89
2021/01/01 10:28:00;;;;;;;20.97;15.67;;;4.50;78.60;;;;;;5142354;22;20495;-87
2021/01/01 10:33:26;;;;;;;19.10;15.57;;;4.70;78.10;;;;;;5085045;28;20498;-81
2021/01/01 10:35:55;;;;;;;23.23;16.50;;;4.70;77.60;;;;;;5086959;28;20527;-82
2021/01/01 10:38:23;;;;;;;20.17;15.37;;;4.80;77.50;;;;;;5087157;28;20489;-80
2021/01/01 10:40:50;;;;;;;19.20;14.80;;;4.80;76.90;;;;;;5088777;28;20475;-83
2021/01/01 10:43:16;;;;;;;18.23;15.40;;;4.70;77.50;;;;;;5092643;28;20479;-84
2021/01/01 10:45:47;;;;;;;20.93;17.47;;;4.40;77.70;;;;;;5097038;28;20856;-82
2021/01/01 10:48:20;;;;;;;23.10;16.83;;;4.60;78.20;;;;;;5084259;28;20440;-83
2021/01/01 10:50:47;;;;;;;21.70;15.93;;;4.80;78.30;;;;;;5087001;28;20448;-81
2021/01/01 10:53:14;;;;;;;19.23;15.13;;;5.00;77.50;;;;;;5086327;28;20578;-83
2021/01/01 10:55:42;;;;;;;19.30;15.57;;;5.20;77.60;;;;;;5081412;28;20704;-82
2021/01/01 10:58:08;;;;;;;18.47;14.70;;;5.30;76.80;;;;;;5087539;28;20622;-82
2021/01/01 11:00:36;;;;;;;18.93;15.93;;;5.40;76.50;;;;;;5085750;28;20460;-83
2021/01/01 11:03:04;;;;;;;19.50;15.43;;;5.50;76.60;;;;;;5088102;28;20437;-81
2021/01/01 11:05:39;;;;;;;18.57;15.83;;;5.40;76.30;;;;;;5098634;28;20448;-81
2021/01/01 11:08:07;;;;;;;18.73;15.57;;;5.40;76.60;;;;;;5098095;28;20515;-81
2021/01/01 11:10:34;;;;;;;19.30;15.90;;;5.40;76.60;;;;;;5093217;28;21766;-82
2021/01/01 11:13:03;;;;;;;18.87;15.43;;;5.40;76.00;;;;;;5089580;28;20448;-83
2021/01/01 12:22:23;;;;;;;15.73;12.40;;;4.60;76.00;;;;;;5019608;28;20439;-83
2021/01/01 12:24:51;;;;;;;13.70;12.23;;;4.60;75.80;;;;;;5003648;28;20478;-83
2021/01/01 12:27:20;;;;;;;16.93;12.97;;;4.80;76.50;;;;;;5055476;28;20447;-82
2021/01/01 12:29:47;;;;;;;18.17;14.33;;;4.90;75.70;;;;;;5097961;28;20829;-81
2021/01/01 12:32:21;;;;;;;19.10;13.77;;;5.00;75.20;;;;;;5090438;28;20481;-82
2021/01/01 12:34:48;;;;;;;15.30;13.10;;;4.90;75.10;;;;;;5083774;28;20469;-81
2021/01/01 12:37:18;;;;;;;15.10;12.47;;;4.90;75.10;;;;;;5091141;28;20955;-83
2021/01/01 12:39:44;;;;;;;14.67;12.80;;;5.10;75.10;;;;;;5085223;28;20492;-81
2021/01/01 12:42:12;;;;;;;15.50;11.77;;;5.20;75.20;;;;;;5085833;28;20460;-83
2021/01/01 12:44:40;;;;;;;15.40;13.10;;;5.30;74.70;;;;;;5083433;28;20526;-82
2021/01/01 12:47:07;;;;;;;13.30;11.50;;;5.40;74.00;;;;;;5085617;28;20455;-82
2021/01/01 12:49:37;;;;;;;13.87;12.23;;;5.40;73.50;;;;;;5084207;28;20452;-83
2021/01/01 12:52:04;;;;;;;13.30;11.93;;;5.20;73.80;;;;;;5083422;28;20456;-83
2021/01/01 12:54:32;;;;;;;14.03;12.23;;;5.20;74.40;;;;;;5082831;28;20548;-81
2021/01/01 12:56:59;;;;;;;13.50;11.70;;;5.20;73.80;;;;;;5090622;28;20460;-83
2021/01/01 12:59:28;;;;;;;12.80;11.50;;;5.30;74.10;;;;;;5082758;28;20452;-82
2021/01/01 13:01:55;;;;;;;14.13;11.93;;;5.20;74.00;;;;;;5078904;28;20474;-81
2021/01/01 13:04:22;;;;;;;14.40;10.73;;;5.30;73.60;;;;;;5080283;28;20466;-83
2021/01/01 13:06:51;;;;;;;12.27;10.67;;;5.10;73.60;;;;;;5076788;28;20457;-81
2021/01/01 13:09:18;;;;;;;12.73;10.40;;;4.90;73.10;;;;;;5077449;28;20491;-80
2021/01/01 13:11:47;;;;;;;13.33;10.93;;;4.80;73.30;;;;;;5074687;28;20775;-81
2021/01/01 13:14:14;;;;;;;13.03;10.90;;;4.80;73.40;;;;;;5083488;28;20460;-84
2021/01/01 13:16:43;;;;;;;15.87;11.93;;;4.80;73.50;;;;;;5073861;28;20803;-79
2021/01/01 13:19:11;;;;;;;13.33;11.77;;;4.80;73.70;;;;;;5100277;28;20463;-84
2021/01/01 13:21:41;;;;;;;14.97;12.57;;;4.80;73.70;;;;;;5081187;28;20535;-83
2021/01/01 13:24:09;;;;;;;16.93;12.20;;;4.80;74.10;;;;;;5081635;28;20464;-82
2021/01/01 13:26:36;;;;;;;14.30;12.13;;;4.80;73.60;;;;;;5078221;28;20531;-82
2021/01/01 13:29:04;;;;;;;15.47;12.53;;;4.90;73.70;;;;;;5083215;28;20463;-83
2021/01/01 13:31:46;;;;;;;14.47;12.37;;;4.80;73.90;;;;;;5090310;28;20452;-83
2021/01/01 13:34:13;;;;;;;15.73;12.80;;;4.80;74.40;;;;;;5078185;28;21207;-84
2021/01/01 13:36:42;;;;;;;16.17;12.17;;;4.80;73.70;;;;;;5084098;28;20488;-84
2021/01/01 13:39:09;;;;;;;15.53;12.73;;;4.90;73.80;;;;;;5091828;28;20474;-84
2021/01/01 13:41:40;;;;;;;13.47;11.73;;;5.00;74.20;;;;;;5081472;28;20452;-81
2021/01/01 13:44:07;;;;;;;12.60;10.83;;;5.00;74.40;;;;;;5075313;28;20444;-84
2021/01/01 13:46:35;;;;;;;14.93;12.30;;;4.90;74.00;;;;;;5091320;28;21331;-82
2021/01/01 13:49:02;;;;;;;14.53;12.90;;;4.80;73.70;;;;;;5096606;28;20471;-81
2021/01/01 13:51:31;;;;;;;14.33;12.70;;;4.70;73.90;;;;;;5090721;28;21053;-85
2021/01/01 13:53:57;;;;;;;14.07;12.57;;;4.60;74.20;;;;;;5079993;28;20455;-81
2021/01/01 13:56:25;;;;;;;13.80;12.30;;;4.60;74.00;;;;;;5085435;28;20490;-82
2021/01/01 13:58:52;;;;;;;16.53;12.90;;;4.50;74.30;;;;;;5076657;28;20463;-83
2021/01/01 14:01:20;;;;;;;18.07;13.63;;;4.50;74.50;;;;;;5079604;28;20743;-84
2021/01/01 14:03:49;;;;;;;17.20;12.77;;;4.40;74.30;;;;;;5086876;28;20538;-81
2021/01/01 14:06:16;;;;;;;14.63;11.80;;;4.40;74.20;;;;;;5084758;28;21008;-82
2021/01/01 14:08:46;;;;;;;14.90;12.43;;;4.40;74.40;;;;;;5081160;28;20452;-83
2021/01/01 14:11:23;;;;;;;13.57;11.90;;;4.50;74.40;;;;;;5081246;28;20505;-83
2021/01/01 14:13:51;;;;;;;16.23;12.90;;;4.50;74.40;;;;;;5084293;28;20484;-82
2021/01/01 14:16:17;;;;;;;17.30;12.50;;;4.50;74.70;;;;;;5078821;28;20474;-83
2021/01/01 14:18:45;;;;;;;16.73;13.47;;;4.50;74.90;;;;;;5079222;28;20463;-86
2021/01/01 14:21:12;;;;;;;14.80;12.73;;;4.50;75.10;;;;;;5095031;28;20565;-82
2021/01/01 14:23:39;;;;;;;16.33;12.73;;;4.40;74.90;;;;;;5093461;28;20432;-82
2021/01/01 14:26:07;;;;;;;14.10;12.20;;;4.40;75.20;;;;;;5096304;28;20445;-86